Time;durP1;ratioP1;P1;durP2;ratioP2;P2;SDS_P1;SDS_P2;PMS_P1;PMS_P2;Temp;Humidity;BMP_temperature;BMP_pressure;BME280_temperature;BME280_humidity;BME280_pressure;Samples;Min_cycle;Max_cycle;Signal;HPM_P1;HPM_P2
2024/03/08 00:00:48;;;;;;;;;36.20;32.80;;;;;13.90;95.78;100464.19;2092977;28;46893;-53
2024/03/08 00:01:48;;;;;;;;;42.75;36.00;;;;;13.90;96.17;100474.84;2093790;28;46750;-52
2024/03/08 00:02:50;;;;;;;;;40.75;33.50;;;;;13.96;95.83;100468.41;2099886;28;46607;-52
2024/03/08 00:03:52;;;;;;;;;43.40;37.80;;;;;13.99;95.72;100462.97;2091630;28;46308;-55
2024/03/08 00:04:52;;;;;;;;;38.20;33.80;;;;;13.92;95.61;100454.31;2091021;28;46490;-54
2024/03/08 00:05:52;;;;;;;;;46.50;34.75;;;;;13.92;95.59;100456.13;2099736;28;46632;-55
2024/03/08 00:06:52;;;;;;;;;42.50;34.75;;;;;13.91;95.75;100460.59;2099250;28;46140;-52
2024/03/08 00:07:53;;;;;;;;;37.25;33.50;;;;;13.90;95.61;100457.97;2100543;28;46582;-53
2024/03/08 00:08:53;;;;;;;;;46.25;35.75;;;;;13.91;95.32;100452.59;2099930;28;46704;-51
2024/03/08 00:09:53;;;;;;;;;37.75;34.00;;;;;13.89;95.72;100461.59;2090740;28;46912;-53
2024/03/08 00:10:54;;;;;;;;;42.75;35.75;;;;;13.88;95.43;100460.72;2091193;28;46615;-51
2024/03/08 00:11:54;;;;;;;;;40.50;34.50;;;;;13.87;95.84;100456.31;2100676;28;46422;-56
2024/03/08 00:12:54;;;;;;;;;37.50;30.00;;;;;13.88;95.90;100458.03;2089957;28;45276;-54
2024/03/08 00:13:55;;;;;;;;;40.50;34.25;;;;;13.89;95.84;100450.91;2087951;28;46344;-51
2024/03/08 00:14:55;;;;;;;;;40.75;35.25;;;;;13.89;95.73;100461.59;2097217;28;46523;-51
2024/03/08 00:15:57;;;;;;;;;40.25;34.00;;;;;13.87;95.77;100453.66;2099898;28;46608;-52
2024/03/08 00:16:57;;;;;;;;;39.40;34.20;;;;;13.87;95.76;100445.63;2099846;28;46918;-53
2024/03/08 00:17:58;;;;;;;;;40.25;31.50;;;;;13.84;96.25;100440.41;2099987;28;47086;-52
2024/03/08 00:18:58;;;;;;;;;39.50;34.25;;;;;13.85;96.16;100452.84;2099177;28;46918;-54
2024/03/08 00:19:58;;;;;;;;;42.75;35.00;;;;;13.83;96.25;100442.19;2099331;28;46605;-53
2024/03/08 00:20:59;;;;;;;;;40.00;35.00;;;;;13.83;95.83;100439.53;2099513;28;46262;-53
2024/03/08 00:22:00;;;;;;;;;35.50;33.25;;;;;13.82;95.83;100439.59;2099918;28;45969;-50
2024/03/08 00:23:00;;;;;;;;;39.00;33.80;;;;;13.83;96.08;100446.66;2099915;28;47345;-49
2024/03/08 00:24:01;;;;;;;;;32.25;31.00;;;;;13.83;95.91;100449.34;2100493;28;47021;-49
2024/03/08 00:25:02;;;;;;;;;40.00;35.25;;;;;13.82;95.99;100447.59;2100439;28;46430;-50
2024/03/08 00:26:04;;;;;;;;;36.20;33.40;;;;;13.82;95.94;100436.94;2099364;28;46659;-51
2024/03/08 00:27:05;;;;;;;;;41.80;37.00;;;;;13.81;95.96;100446.72;2100642;28;46897;-51
2024/03/08 00:28:06;;;;;;;;;37.80;34.20;;;;;13.80;96.15;100444.13;2099940;28;46640;-49
2024/03/08 00:29:07;;;;;;;;;40.00;33.00;;;;;13.79;96.15;100431.72;2100158;28;46351;-50
2024/03/08 00:30:08;;;;;;;;;45.60;36.80;;;;;13.78;96.06;100438.88;2089718;28;46385;-53
2024/03/08 00:31:08;;;;;;;;;39.00;35.00;;;;;13.78;96.14;100441.53;2073528;28;46492;-52
2024/03/08 00:32:09;;;;;;;;;42.50;35.00;;;;;13.76;96.07;100434.53;2081708;28;46623;-53
2024/03/08 00:33:09;;;;;;;;;39.75;33.25;;;;;13.79;95.77;100431.72;2099402;28;46269;-52
2024/03/08 00:34:11;;;;;;;;;44.25;35.50;;;;;13.76;96.12;100429.19;2099317;28;46276;-54
2024/03/08 00:35:12;;;;;;;;;38.00;33.80;;;;;13.74;96.08;100437.25;2099922;28;46387;-49
2024/03/08 00:36:12;;;;;;;;;47.25;39.50;;;;;13.74;96.29;100423.06;2099645;28;46788;-51
2024/03/08 00:37:13;;;;;;;;;39.75;34.00;;;;;13.73;96.05;100424.84;2100136;28;46651;-52
2024/03/08 00:38:13;;;;;;;;;40.75;34.00;;;;;13.80;96.43;100422.78;2099292;28;46585;-51
2024/03/08 00:39:13;;;;;;;;;41.75;35.50;;;;;13.71;96.05;100421.34;2099855;28;46803;-50
2024/03/08 00:40:14;;;;;;;;;45.50;35.25;;;;;13.71;96.51;100428.47;2100520;28;46256;-52
2024/03/08 00:41:14;;;;;;;;;39.00;33.75;;;;;13.70;96.77;100430.28;2099122;28;46629;-54
2024/03/08 00:42:16;;;;;;;;;36.75;32.75;;;;;13.68;96.71;100421.47;2099350;28;46411;-53
2024/03/08 00:43:16;;;;;;;;;41.60;32.80;;;;;13.71;96.86;100418.69;2099799;28;46751;-51
2024/03/08 00:44:17;;;;;;;;;36.00;33.00;;;;;13.67;96.95;100424.22;2098915;28;46623;-54
2024/03/08 00:45:17;;;;;;;;;41.25;35.00;;;;;13.64;97.09;100414.53;2097121;28;45420;-52
2024/03/08 00:46:17;;;;;;;;;42.75;36.25;;;;;13.51;97.53;100415.94;2099324;28;46861;-52
2024/03/08 00:47:18;;;;;;;;;40.50;34.50;;;;;13.48;97.65;100413.41;2097751;28;46237;-49
2024/03/08 00:48:18;;;;;;;;;39.50;34.50;;;;;13.45;97.91;100408.16;2099607;28;46426;-52
2024/03/08 00:49:18;;;;;;;;;37.50;33.50;;;;;13.44;98.34;100404.63;2100863;28;46859;-52
2024/03/08 00:50:19;;;;;;;;;40.00;34.50;;;;;13.51;98.00;100406.16;2099991;28;46417;-54
2024/03/08 00:51:19;;;;;;;;;39.25;35.25;;;;;13.53;97.89;100406.09;2099134;28;46209;-51
2024/03/08 00:52:19;;;;;;;;;40.75;36.00;;;;;13.51;98.27;100400.81;2099514;28;46063;-52
2024/03/08 00:53:19;;;;;;;;;33.25;31.75;;;;;13.52;98.45;100402.56;2100371;28;46319;-52
2024/03/08 00:54:20;;;;;;;;;45.25;36.50;;;;;13.51;98.24;100406.16;2099826;28;47068;-50
2024/03/08 00:55:20;;;;;;;;;36.50;33.00;;;;;13.50;98.09;100400.88;2100611;28;45588;-53
2024/03/08 00:56:20;;;;;;;;;37.50;34.50;;;;;13.50;98.09;100396.41;2100634;28;46432;-50
2024/03/08 00:57:21;;;;;;;;;38.25;32.00;;;;;13.51;98.07;100386.63;2094234;28;46308;-52
2024/03/08 00:58:23;;;;;;;;;38.40;35.00;;;;;13.52;98.12;100388.34;2093561;28;46265;-53
2024/03/08 00:59:24;;;;;;;;;39.00;35.20;;;;;13.41;98.33;100388.75;2090798;28;46418;-53
2024/03/08 01:00:25;;;;;;;;;40.25;33.75;;;;;13.39;98.88;100384.41;2089832;28;47235;-52
2024/03/08 01:01:26;;;;;;;;;41.20;34.00;;;;;13.43;99.14;100388.69;2098648;28;46668;-54
2024/03/08 01:02:26;;;;;;;;;35.00;32.75;;;;;13.46;98.66;100389.44;2099523;28;46871;-53
2024/03/08 01:03:27;;;;;;;;;38.75;34.00;;;;;13.47;98.57;100387.66;2100128;28;46616;-53
2024/03/08 01:04:30;;;;;;;;;43.25;34.25;;;;;13.45;98.56;100381.50;2100210;28;46336;-54
2024/03/08 01:05:31;;;;;;;;;45.40;37.40;;;;;13.35;98.38;100385.47;2099994;28;46923;-54
2024/03/08 01:06:31;;;;;;;;;32.00;30.75;;;;;13.30;98.74;100374.97;2099985;28;46865;-52
2024/03/08 01:07:32;;;;;;;;;44.50;36.75;;;;;13.38;98.93;100378.22;2099279;28;47000;-52
2024/03/08 01:08:32;;;;;;;;;43.25;36.50;;;;;13.40;98.93;100380.81;2099164;28;46596;-54
2024/03/08 01:09:32;;;;;;;;;43.25;35.75;;;;;13.41;98.95;100377.22;2089889;28;46207;-54
2024/03/08 01:10:32;;;;;;;;;38.50;33.00;;;;;13.42;99.04;100377.16;2089744;28;46367;-54
2024/03/08 01:11:34;;;;;;;;;38.75;34.25;;;;;13.40;99.08;100376.38;2099273;28;46259;-53
2024/03/08 01:12:34;;;;;;;;;41.20;35.80;;;;;13.40;99.04;100363.03;2100523;28;46383;-52
2024/03/08 01:13:35;;;;;;;;;39.50;33.50;;;;;13.40;99.30;100363.03;2099299;28;46579;-54
2024/03/08 01:14:35;;;;;;;;;46.00;36.00;;;;;13.41;99.10;100354.09;2098903;28;46327;-51
2024/03/08 01:15:35;;;;;;;;;39.75;34.00;;;;;13.41;98.85;100353.25;2099480;28;46240;-49
2024/03/08 01:16:36;;;;;;;;;40.50;34.00;;;;;13.30;99.01;100358.13;2099076;28;46262;-50
2024/03/08 01:17:37;;;;;;;;;42.25;34.75;;;;;13.36;99.14;100349.91;2099881;28;47094;-51
2024/03/08 01:18:37;;;;;;;;;47.25;37.50;;;;;13.36;98.95;100349.91;2099078;28;47065;-50
2024/03/08 01:19:37;;;;;;;;;46.25;36.50;;;;;13.27;99.21;100343.13;2099501;28;46420;-50
2024/03/08 01:20:40;;;;;;;;;38.00;33.50;;;;;13.25;99.74;100355.63;2098803;28;46437;-50
2024/03/08 01:21:40;;;;;;;;;42.60;36.20;;;;;13.27;99.84;100355.56;2065929;28;46657;-50
2024/03/08 01:22:40;;;;;;;;;34.00;31.75;;;;;13.24;100.00;100351.25;2065718;28;46486;-51
2024/03/08 01:23:41;;;;;;;;;40.00;33.50;;;;;13.25;100.00;100340.53;2099438;28;46161;-50
2024/03/08 01:24:41;;;;;;;;;45.50;35.50;;;;;13.19;100.00;100346.06;2099116;28;45177;-54
2024/03/08 01:25:43;;;;;;;;;40.25;35.25;;;;;13.17;100.00;100350.56;2100253;28;46842;-51
2024/03/08 01:26:44;;;;;;;;;41.60;36.80;;;;;13.15;100.00;100344.44;2098576;28;46399;-51
2024/03/08 01:27:45;;;;;;;;;42.40;36.40;;;;;13.21;100.00;100343.34;2099778;28;45828;-55
2024/03/08 01:28:45;;;;;;;;;45.75;36.50;;;;;13.20;100.00;100347.81;2099258;28;46299;-53
2024/03/08 01:29:45;;;;;;;;;44.25;37.00;;;;;13.19;100.00;100346.06;2099262;28;46294;-51
2024/03/08 01:30:45;;;;;;;;;40.75;34.00;;;;;13.20;100.00;100341.59;2099817;28;46798;-52
2024/03/08 01:31:46;;;;;;;;;41.25;35.25;;;;;13.16;100.00;100342.63;2099623;28;46597;-52
2024/03/08 01:32:46;;;;;;;;;35.25;32.00;;;;;13.17;100.00;100339.91;2098802;27;46754;-50
2024/03/08 01:33:46;;;;;;;;;38.75;33.50;;;;;13.19;100.00;100337.22;2099405;28;46290;-51
2024/03/08 01:34:47;;;;;;;;;43.25;37.00;;;;;13.17;100.00;100339.91;2094105;28;45520;-51
2024/03/08 01:35:47;;;;;;;;;43.75;35.75;;;;;13.17;100.00;100339.91;2094645;28;46626;-51
2024/03/08 01:36:48;;;;;;;;;45.50;35.50;;;;;13.16;100.00;100338.16;2097241;28;46589;-52
2024/03/08 01:37:49;;;;;;;;;43.00;36.00;;;;;13.15;100.00;100336.44;2098879;28;46197;-53
2024/03/08 01:38:50;;;;;;;;;40.20;34.20;;;;;13.16;100.00;100339.97;2098654;28;46777;-53
2024/03/08 01:39:50;;;;;;;;;43.25;36.25;;;;;13.12;100.00;100327.69;2100340;28;46704;-51
2024/03/08 01:40:51;;;;;;;;;45.00;37.50;;;;;13.13;100.00;100332.97;2099898;28;46852;-52
2024/03/08 01:41:51;;;;;;;;;41.00;35.75;;;;;13.13;100.00;100327.63;2099997;28;46478;-50
2024/03/08 01:42:53;;;;;;;;;38.50;34.25;;;;;13.13;100.00;100318.78;2098908;28;46262;-51
2024/03/08 01:43:53;;;;;;;;;44.60;37.20;;;;;13.12;100.00;100325.91;2099268;28;46722;-49
2024/03/08 01:44:54;;;;;;;;;42.50;36.50;;;;;13.11;100.00;100318.84;2099165;28;45995;-53
2024/03/08 01:46:01;;;;;;;;;41.40;35.60;;;;;13.11;100.00;100324.16;2099518;28;46393;-52
2024/03/08 01:47:01;;;;;;;;;34.20;31.80;;;;;13.10;100.00;100316.25;2099850;28;46586;-52
2024/03/08 01:48:02;;;;;;;;;44.00;36.50;;;;;13.08;100.00;100312.72;2098517;28;46157;-54
2024/03/08 01:49:03;;;;;;;;;39.00;35.00;;;;;13.08;100.00;100312.72;2080845;28;46168;-53
2024/03/08 01:50:06;;;;;;;;;42.20;35.80;;;;;13.07;100.00;100311.88;2080947;28;46880;-52
2024/03/08 01:51:06;;;;;;;;;44.40;37.00;;;;;13.04;100.00;100305.81;2099277;28;47282;-52
2024/03/08 01:52:07;;;;;;;;;40.25;33.25;;;;;13.03;100.00;100317.38;2098990;28;46520;-53
2024/03/08 01:53:10;;;;;;;;;42.00;36.25;;;;;13.00;100.00;100307.72;2099385;28;46776;-54
2024/03/08 01:54:10;;;;;;;;;42.40;36.20;;;;;12.98;100.00;100306.91;2096123;28;46725;-54
2024/03/08 01:55:14;;;;;;;;;42.50;35.50;;;;;12.98;100.00;100306.06;2100629;28;45396;-51
2024/03/08 01:56:14;;;;;;;;;42.80;35.40;;;;;12.96;100.00;100306.97;2080419;28;47214;-52
2024/03/08 01:57:15;;;;;;;;;38.00;34.00;;;;;12.95;100.00;100301.69;2082615;28;46472;-51
2024/03/08 01:58:16;;;;;;;;;43.50;36.75;;;;;12.95;100.00;100302.53;2098771;28;46343;-51
2024/03/08 01:59:17;;;;;;;;;41.25;35.25;;;;;12.95;100.00;100299.88;2100044;28;47550;-52
2024/03/08 02:00:20;;;;;;;;;39.40;34.80;;;;;12.95;100.00;100304.34;2099113;28;46887;-52
2024/03/08 02:01:21;;;;;;;;;38.80;33.20;;;;;12.93;100.00;100304.41;2099556;28;46445;-51
2024/03/08 02:02:22;;;;;;;;;43.00;36.50;;;;;12.98;100.00;100304.25;2099532;28;46487;-51
2024/03/08 02:03:22;;;;;;;;;39.60;35.60;;;;;13.01;100.00;100296.13;2099294;28;46952;-52
2024/03/08 02:04:24;;;;;;;;;36.25;33.25;;;;;12.94;100.00;100300.81;2099746;28;46624;-53
2024/03/08 02:05:25;;;;;;;;;39.20;34.60;;;;;12.92;100.00;100293.81;2098549;28;46049;-50
2024/03/08 02:06:26;;;;;;;;;42.80;36.40;;;;;12.89;100.00;100300.13;2099083;28;46229;-50
2024/03/08 02:07:26;;;;;;;;;40.50;35.00;;;;;12.89;100.00;100292.13;2090432;28;45593;-54
2024/03/08 02:08:26;;;;;;;;;42.50;33.25;;;;;12.93;100.00;100287.56;2090850;28;46432;-52
2024/03/08 02:09:27;;;;;;;;;43.00;37.00;;;;;12.93;100.00;100280.44;2099572;28;47012;-53
2024/03/08 02:10:28;;;;;;;;;41.75;35.00;;;;;12.90;100.00;100287.69;2099400;28;46392;-53
2024/03/08 02:11:29;;;;;;;;;41.20;35.00;;;;;12.88;100.00;100290.41;2097406;28;46379;-52
2024/03/08 02:12:29;;;;;;;;;48.25;37.75;;;;;12.86;100.00;100284.28;2099069;28;46385;-50
2024/03/08 02:13:29;;;;;;;;;36.00;33.75;;;;;12.85;100.00;100282.53;2072072;28;46283;-51
2024/03/08 02:14:31;;;;;;;;;43.50;35.25;;;;;12.83;100.00;100278.19;2072842;28;46290;-52
2024/03/08 02:15:54;;;;;;;;;39.80;34.20;;;;;12.84;100.00;100271.97;2095662;28;49368;-52
2024/03/08 02:16:56;;;;;;;;;40.60;35.20;;;;;12.81;100.00;100274.72;2099259;28;46559;-49
2024/03/08 02:17:57;;;;;;;;;37.60;34.00;;;;;12.81;100.00;100272.91;2099287;28;46472;-54
2024/03/08 02:18:57;;;;;;;;;43.50;36.50;;;;;12.79;100.00;100271.25;2099354;28;46254;-54
2024/03/08 02:19:57;;;;;;;;;45.00;36.00;;;;;12.79;100.00;100268.56;2099854;28;46194;-53
2024/03/08 02:21:03;;;;;;;;;42.25;37.00;;;;;12.80;100.00;100270.31;2099065;28;45767;-50
2024/03/08 02:22:04;;;;;;;;;52.60;38.60;;;;;12.81;100.00;100264.94;2098902;28;46454;-51
2024/03/08 02:23:04;;;;;;;;;39.40;35.40;;;;;12.76;100.00;100266.03;2099301;28;46532;-54
2024/03/08 02:24:06;;;;;;;;;34.00;31.00;;;;;12.95;100.00;100259.06;2099295;28;46542;-54
2024/03/08 02:25:08;;;;;;;;;45.40;37.80;;;;;12.93;100.00;100258.25;2098914;28;46336;-53
2024/03/08 02:26:08;;;;;;;;;34.80;32.80;;;;;12.91;100.00;100255.66;2099288;28;46404;-52
2024/03/08 02:27:11;;;;;;;;;40.00;35.00;;;;;12.91;100.00;100258.31;2098875;28;45821;-50
2024/03/08 02:28:13;;;;;;;;;47.40;37.00;;;;;12.94;100.00;100257.34;2097755;28;46942;-50
2024/03/08 02:29:14;;;;;;;;;42.80;35.80;;;;;12.91;100.00;100257.47;2099664;28;45909;-51
2024/03/08 02:30:14;;;;;;;;;46.20;37.20;;;;;12.90;100.00;100253.06;2098833;28;46870;-52
2024/03/08 02:31:16;;;;;;;;;25.40;25.40;;;;;12.92;100.00;100252.06;2099563;28;45818;-52
2024/03/08 02:32:17;;;;;;;;;43.25;37.75;;;;;12.97;100.00;100249.25;2100122;28;47739;-53
2024/03/08 02:33:18;;;;;;;;;40.60;36.20;;;;;12.99;100.00;100241.19;2102275;28;46431;-52
2024/03/08 02:34:18;;;;;;;;;44.50;37.75;;;;;12.99;100.00;100252.72;2102441;28;46379;-49
2024/03/08 02:35:18;;;;;;;;;42.75;36.00;;;;;13.00;100.00;100241.13;2103064;28;46241;-53
2024/03/08 02:36:19;;;;;;;;;43.50;36.75;;;;;12.96;100.00;100240.41;2102191;28;46283;-52
2024/03/08 02:37:19;;;;;;;;;42.25;35.00;;;;;12.98;100.00;100232.34;2103529;28;46536;-53
2024/03/08 02:38:21;;;;;;;;;37.25;34.25;;;;;12.98;100.00;100231.47;2102822;28;46928;-54
2024/03/08 02:39:22;;;;;;;;;44.80;37.20;;;;;12.97;100.00;100225.28;2102972;28;46401;-49
2024/03/08 02:40:22;;;;;;;;;39.75;34.75;;;;;12.96;100.00;100232.41;2103040;28;46869;-51
2024/03/08 02:41:22;;;;;;;;;40.25;34.50;;;;;12.96;100.00;100234.19;2101067;28;47601;-53
2024/03/08 02:42:23;;;;;;;;;31.75;30.75;;;;;12.97;100.00;100225.28;2102840;28;46562;-52
2024/03/08 02:43:24;;;;;;;;;42.25;34.75;;;;;12.98;100.00;100234.13;2100916;28;46409;-53
2024/03/08 02:44:24;;;;;;;;;40.40;36.20;;;;;12.92;100.00;100225.44;2102691;28;46974;-50
2024/03/08 02:45:24;;;;;;;;;45.25;37.00;;;;;12.90;100.00;100229.97;2103757;28;46733;-53
2024/03/08 02:46:25;;;;;;;;;43.00;34.00;;;;;12.89;100.00;100224.69;2102168;28;46724;-52
2024/03/08 02:47:26;;;;;;;;;47.25;37.50;;;;;12.92;100.00;100220.09;2083160;28;46451;-52
2024/03/08 02:48:26;;;;;;;;;40.00;35.75;;;;;12.89;100.00;100219.38;2085140;28;46706;-54
2024/03/08 02:49:27;;;;;;;;;42.75;35.50;;;;;12.85;100.00;100210.66;2102387;28;46541;-51
2024/03/08 02:50:27;;;;;;;;;39.25;34.75;;;;;12.83;100.00;100219.59;2103459;28;46636;-53
2024/03/08 02:51:29;;;;;;;;;34.75;31.25;;;;;12.85;100.00;100205.31;2102181;28;46658;-52
2024/03/08 02:52:29;;;;;;;;;43.80;37.00;;;;;12.83;100.00;100206.28;2102447;28;46942;-50
2024/03/08 02:53:29;;;;;;;;;33.50;30.00;;;;;12.80;100.00;100207.28;2103437;28;46575;-48
2024/03/08 02:54:30;;;;;;;;;40.00;35.00;;;;;12.76;100.00;100199.47;2102854;28;46651;-53
2024/03/08 02:55:30;;;;;;;;;47.50;37.50;;;;;12.73;100.00;100202.25;2102787;28;46271;-52
2024/03/08 02:56:34;;;;;;;;;38.00;33.75;;;;;12.70;100.00;100203.22;2103432;28;46484;-52
2024/03/08 02:57:35;;;;;;;;;43.20;36.40;;;;;12.72;100.00;100204.06;2101629;28;46395;-53
2024/03/08 02:58:35;;;;;;;;;40.00;35.00;;;;;12.66;100.00;100196.28;2103318;28;46481;-53
2024/03/08 02:59:35;;;;;;;;;43.00;33.25;;;;;12.78;100.00;100189.63;2100598;28;46432;-54
2024/03/08 03:00:37;;;;;;;;;41.25;35.75;;;;;12.75;100.00;100190.63;2103154;28;46596;-52
2024/03/08 03:01:38;;;;;;;;;37.20;32.40;;;;;12.77;100.00;100194.09;2103558;28;46259;-55
2024/03/08 03:02:39;;;;;;;;;40.40;34.20;;;;;12.78;100.00;100184.31;2102061;28;46604;-53
2024/03/08 03:03:39;;;;;;;;;44.00;37.25;;;;;12.75;100.00;100190.63;2103047;28;46411;-54
2024/03/08 03:04:40;;;;;;;;;44.25;36.00;;;;;12.70;100.00;100186.38;2103898;28;46512;-53
2024/03/08 03:05:43;;;;;;;;;43.60;36.00;;;;;12.66;100.00;100190.97;2103408;28;46328;-53
2024/03/08 03:06:44;;;;;;;;;38.60;33.00;;;;;12.67;100.00;100187.38;2102283;28;46425;-51
2024/03/08 03:07:44;;;;;;;;;42.00;36.25;;;;;12.73;100.00;100181.84;2103289;27;46293;-52
2024/03/08 03:08:45;;;;;;;;;39.25;36.00;;;;;12.77;100.00;100179.91;2093944;28;46207;-54
2024/03/08 03:09:45;;;;;;;;;41.80;37.00;;;;;12.76;100.00;100173.72;2094748;28;46777;-51
2024/03/08 03:10:46;;;;;;;;;40.25;35.00;;;;;12.76;100.00;100178.19;2104148;28;45208;-50
2024/03/08 03:11:46;;;;;;;;;41.00;35.00;;;;;12.69;100.00;100169.53;2103909;28;46305;-51
2024/03/08 03:12:48;;;;;;;;;38.50;32.00;;;;;12.68;100.00;100171.34;2104760;28;46651;-53
2024/03/08 03:13:49;;;;;;;;;44.00;34.20;;;;;12.68;100.00;100167.81;2103166;28;46808;-52
2024/03/08 03:14:49;;;;;;;;;43.75;36.00;;;;;12.67;100.00;100160.75;2094027;28;46231;-51
2024/03/08 03:15:50;;;;;;;;;42.50;37.25;;;;;12.65;100.00;100165.28;2095603;28;46885;-52
2024/03/08 03:16:50;;;;;;;;;44.00;35.50;;;;;12.66;100.00;100159.88;2101651;28;46687;-51
2024/03/08 03:17:50;;;;;;;;;37.50;33.50;;;;;12.60;100.00;100164.59;2104756;28;46160;-53
2024/03/08 03:18:51;;;;;;;;;41.25;33.25;;;;;12.62;100.00;100152.09;2104218;28;46179;-54
2024/03/08 03:19:52;;;;;;;;;42.75;34.75;;;;;12.63;100.00;100160.00;2103678;28;46815;-51
2024/03/08 03:20:52;;;;;;;;;37.20;33.40;;;;;12.64;100.00;100151.09;2104484;28;46393;-51
2024/03/08 03:21:53;;;;;;;;;44.00;37.00;;;;;12.64;100.00;100155.56;2104345;28;46748;-53
2024/03/08 03:22:53;;;;;;;;;37.50;33.75;;;;;12.61;100.00;100151.22;2104163;28;46895;-53
2024/03/08 03:23:53;;;;;;;;;39.00;34.75;;;;;12.61;100.00;100148.56;2104248;28;46709;-53
2024/03/08 03:24:54;;;;;;;;;41.00;34.75;;;;;12.61;100.00;100145.03;2103697;28;46459;-53
2024/03/08 03:25:57;;;;;;;;;39.50;35.25;;;;;12.67;100.00;100148.31;2104560;28;46727;-52
2024/03/08 03:26:57;;;;;;;;;40.60;35.00;;;;;12.78;100.00;100147.03;2103947;28;46648;-52
2024/03/08 03:27:57;;;;;;;;;42.50;35.75;;;;;12.83;100.00;100147.69;2094128;28;46399;-52
2024/03/08 03:29:00;;;;;;;;;40.75;35.00;;;;;12.85;100.00;100148.53;2095247;28;46538;-51
2024/03/08 03:30:20;;;;;;;;;40.40;34.20;;;;;12.87;100.00;100142.22;2104599;28;46550;-53
2024/03/08 03:31:23;;;;;;;;;36.00;32.00;;;;;12.80;100.00;100148.69;2103403;28;46572;-50
2024/03/08 03:32:24;;;;;;;;;35.20;32.20;;;;;12.79;100.00;100143.44;2100105;27;46577;-50
2024/03/08 03:33:25;;;;;;;;;43.50;35.50;;;;;12.77;100.00;100147.97;2099892;28;45661;-51
2024/03/08 03:34:25;;;;;;;;;37.50;35.00;;;;;12.76;100.00;100139.09;2100351;28;46163;-51
2024/03/08 03:35:25;;;;;;;;;39.75;35.25;;;;;12.73;100.00;100135.72;2100252;28;46803;-53
2024/03/08 03:36:27;;;;;;;;;43.00;35.25;;;;;12.77;100.00;100134.66;2099734;28;46184;-52
2024/03/08 03:37:28;;;;;;;;;42.80;34.40;;;;;12.71;100.00;100138.44;2100458;28;46350;-51
2024/03/08 03:38:28;;;;;;;;;46.00;37.00;;;;;12.71;100.00;100130.44;2100206;28;46186;-54
2024/03/08 03:39:32;;;;;;;;;44.00;36.50;;;;;12.71;100.00;100134.91;2100274;28;46349;-52
2024/03/08 03:40:42;;;;;;;;;37.20;34.00;;;;;12.73;100.00;100123.25;2099922;28;46935;-53
2024/03/08 03:41:45;;;;;;;;;47.40;37.00;;;;;12.71;100.00;100127.78;2100628;28;47020;-55
2024/03/08 03:42:46;;;;;;;;;43.40;36.80;;;;;12.68;100.00;100120.75;2082829;28;46468;-54
2024/03/08 03:43:46;;;;;;;;;46.75;37.00;;;;;12.74;100.00;100116.13;2082787;28;46721;-54
2024/03/08 03:44:48;;;;;;;;;47.75;37.75;;;;;12.66;100.00;100113.75;2082859;28;45900;-54
2024/03/08 03:45:48;;;;;;;;;42.00;36.60;;;;;12.61;100.00;100113.09;2082495;28;46332;-53
2024/03/08 03:46:50;;;;;;;;;39.50;35.75;;;;;12.58;100.00;100115.88;2097177;28;46934;-53
2024/03/08 03:47:51;;;;;;;;;44.20;35.60;;;;;12.49;100.00;100111.78;2097311;28;46222;-52
2024/03/08 03:48:52;;;;;;;;;41.60;35.20;;;;;12.46;100.00;100117.22;2098580;28;46528;-52
2024/03/08 03:49:54;;;;;;;;;33.75;30.75;;;;;12.47;100.00;100115.44;2099747;28;46588;-53
2024/03/08 03:50:54;;;;;;;;;41.40;34.20;;;;;12.44;100.00;100119.06;2081990;28;46987;-53
2024/03/08 03:51:54;;;;;;;;;39.25;34.75;;;;;12.55;100.00;100123.97;2081887;28;46511;-53
2024/03/08 03:52:54;;;;;;;;;35.00;32.25;;;;;12.58;100.00;100135.38;2100716;28;46256;-53
2024/03/08 03:53:57;;;;;;;;;37.25;33.75;;;;;12.56;100.00;100129.22;2090698;28;46121;-53
2024/03/08 03:54:57;;;;;;;;;42.40;36.60;;;;;12.57;100.00;100124.78;2091061;28;46543;-51
2024/03/08 03:55:59;;;;;;;;;42.75;35.50;;;;;12.57;100.00;100135.41;2099491;28;46615;-54
2024/03/08 03:57:00;;;;;;;;;43.20;35.80;;;;;12.58;100.00;100129.19;2099114;28;46884;-49
2024/03/08 03:58:01;;;;;;;;;36.20;31.80;;;;;12.60;100.00;100124.69;2099996;28;46523;-49
2024/03/08 03:59:01;;;;;;;;;34.25;31.50;;;;;12.63;100.00;100122.75;2099160;28;46359;-50
2024/03/08 04:00:02;;;;;;;;;44.25;37.00;;;;;12.64;100.00;100123.63;2081492;28;47001;-48
2024/03/08 04:01:04;;;;;;;;;43.60;35.40;;;;;12.59;100.00;100120.28;2081904;28;46831;-50
2024/03/08 04:02:05;;;;;;;;;40.00;35.00;;;;;12.64;100.00;100123.63;2100923;28;47815;-52
2024/03/08 04:03:05;;;;;;;;;39.50;35.00;;;;;12.69;100.00;100121.63;2099939;28;47184;-49
2024/03/08 04:04:06;;;;;;;;;44.25;37.00;;;;;12.65;100.00;100118.22;2098001;28;46635;-50
2024/03/08 04:05:08;;;;;;;;;42.75;35.75;;;;;12.65;100.00;100120.88;2100022;28;46565;-50
2024/03/08 04:06:08;;;;;;;;;40.80;36.20;;;;;12.63;100.00;100122.75;2100076;28;46478;-52
2024/03/08 04:07:09;;;;;;;;;43.00;36.00;;;;;12.61;100.00;100121.94;2099501;28;46773;-51
2024/03/08 04:08:10;;;;;;;;;42.40;34.60;;;;;12.63;100.00;100114.75;2100234;28;46413;-55
2024/03/08 04:09:11;;;;;;;;;39.00;35.00;;;;;12.55;100.00;100123.97;2100126;28;46320;-52
2024/03/08 04:10:12;;;;;;;;;38.40;32.00;;;;;12.61;100.00;100123.75;2099567;28;46263;-54
2024/03/08 04:11:12;;;;;;;;;39.25;35.50;;;;;12.62;100.00;100117.50;2099514;28;46373;-51
2024/03/08 04:12:15;;;;;;;;;38.50;34.50;;;;;12.63;100.00;100120.09;2098376;28;46956;-50
2024/03/08 04:13:15;;;;;;;;;37.20;34.80;;;;;12.64;100.00;100118.28;2099371;28;46779;-51
2024/03/08 04:14:16;;;;;;;;;48.50;39.75;;;;;12.65;100.00;100126.22;2100100;28;46211;-51
2024/03/08 04:15:16;;;;;;;;;38.00;34.50;;;;;12.65;100.00;100123.56;2099598;28;45938;-50
2024/03/08 04:16:17;;;;;;;;;40.50;36.00;;;;;12.66;100.00;100124.41;2100167;28;46490;-49
2024/03/08 04:17:18;;;;;;;;;38.80;33.80;;;;;12.66;100.00;100127.94;2100097;28;46614;-50
2024/03/08 04:18:19;;;;;;;;;42.75;35.50;;;;;12.67;100.00;100123.47;2100604;28;46872;-51
2024/03/08 04:19:19;;;;;;;;;47.50;39.50;;;;;12.62;100.00;100129.00;2099367;28;46821;-51
2024/03/08 04:20:19;;;;;;;;;41.75;37.00;;;;;12.59;100.00;100117.63;2099454;28;46277;-51
2024/03/08 04:21:19;;;;;;;;;40.25;34.00;;;;;12.57;100.00;100115.00;2099988;28;46454;-53
2024/03/08 04:22:20;;;;;;;;;42.00;37.50;;;;;12.58;100.00;100110.56;2098622;28;46702;-53
2024/03/08 04:23:20;;;;;;;;;41.50;35.75;;;;;12.57;100.00;100117.66;2099714;28;46368;-53
2024/03/08 04:24:21;;;;;;;;;43.00;36.50;;;;;12.59;100.00;100123.81;2100332;28;46420;-54
2024/03/08 04:25:21;;;;;;;;;42.75;33.00;;;;;12.58;100.00;100116.75;2092001;28;45550;-52
2024/03/08 04:26:22;;;;;;;;;44.00;36.25;;;;;12.59;100.00;100117.63;2090822;28;46522;-53
2024/03/08 04:27:22;;;;;;;;;40.75;35.25;;;;;12.57;100.00;100115.00;2100536;28;46758;-51
2024/03/08 04:28:23;;;;;;;;;39.00;34.00;;;;;12.57;100.00;100109.66;2099477;28;46337;-54
2024/03/08 04:29:23;;;;;;;;;48.00;36.50;;;;;12.57;100.00;100109.66;2099755;28;46254;-53
2024/03/08 04:30:24;;;;;;;;;46.75;37.25;;;;;12.59;100.00;100104.31;2073218;28;46503;-53
2024/03/08 04:31:26;;;;;;;;;39.50;36.50;;;;;12.55;100.00;100105.34;2073250;28;46474;-51
2024/03/08 04:32:29;;;;;;;;;32.20;28.80;;;;;12.54;100.00;100099.16;2102351;27;46906;-51
2024/03/08 04:33:29;;;;;;;;;32.20;31.20;;;;;12.52;100.00;100101.00;2108319;27;46677;-53
2024/03/08 04:34:30;;;;;;;;;42.25;36.75;;;;;12.51;100.00;100106.41;2106509;27;46326;-52
2024/03/08 04:35:30;;;;;;;;;42.50;36.00;;;;;12.49;100.00;100103.78;2099246;28;46220;-52